Baltimore, Maryland
Traffic Map
Current Weather Conditions
Baltimore, Maryland
Overcast
Overcast
74°
Feels Like: 74°
Wind Chill: 74° Ceiling: 6500
Heat Index: 74° Visibility: 7mi
Dew Point: 64° Wind: 0mph
Humidity: 71% Direction: ° ()
Pressure: 29.89in Gusts: 0mph
Raw Report DataKBWI 021754Z 00000KT 7SM FEW014 BKN065 OVC090 23/18 A2989 RMK AO2 SLP121 60016 T02330178 10239 20194 55003
Traffic Incident Summary
Active as of:
Severity:
Category:
InformationThere was an issue retrieving the traffic information for this location. Please try a different location or try again shortly.
Advertisements
Track Severe Weather on mobile